หน้าหลัก
METAR-TAF:

METAR-TAF

ท่าอากาศยาน :

Boscombe Down, อังกฤษ

ละติจูด: 51-10N, ลองจิจูด: 001-45W, ความสูง: 124 ม.

การสังเกตสภาพอากาศปัจจุบัน

รายงานได้ทำขึ้นเมื่อ 54 นาทีที่แล้ว ณ เวลา 02:50 UTC
ลมสงบ
อุณหภูมิ 7°C
ความชื้น 93%
ความกดอากาศ 1017 hPa
ทัศนวิสัย 10 กม. หรือมากกว่า

METAR: EGDM 130250Z AUTO 00000KT 9999 FEW035/// SCT043/// 07/06 Q1017

เวลา: 04:44 (03:44 UTC)

การพยากรณ์

รายงานได้ทำขึ้นเมื่อ 14 ชั่วโมงและ 22 นาทีที่แล้ว ณ เวลา 13:22 UTC
การพยากรณ์มีผลตั้งแต่วันที่ 12 ณ เวลา 15 UTC จนถึงวันที่ 12 ณ เวลา 18 UTC
ลม 7 นอตจากตะวันตก/ตะวันตกเฉียงเหนือ
ทัศนวิสัย 10 กม. หรือมากกว่า
มีเมฆกระจายเป็นบางส่วนที่ความสูง 4500 ฟุต

TAF: EGDM 121322Z 1215/1218 30007KT 9999 SCT045

สังเกตการณ์สภาพอากาศและพยากรณ์อากาศของสนามบินมากกว่า 4000 แห่ง (รายงาน METAR และ TAF).

สถานีที่ดูได้จะแสดงไว้ด้วยจุดสีเหลืองและสีแดงบนแผนที่.

เลื่อนเมาส์ไปเหนือจุดเพื่อดูชื่อสถานี.

แล้วคลิกเพื่อดูสังเกตการณ์และการพยากรณ์สภาพอากาศ.

ในการเปลี่ยนแผนที่: คลิกที่ปุ่มสีเขียวที่มีกากบาทสีดำเพื่อซูมเข้า; ที่ปุ่มสีเขียวที่มีขีดเพื่อซูมออก; หรือที่ลูกศรสีเขียวเพื่อไปยังแผนที่ที่อยู่ติดกัน.


METAR-TAF: